Time;durP1;ratioP1;P1;durP2;ratioP2;P2;SDS_P1;SDS_P2;PMS_P1;PMS_P2;Temp;Humidity;BMP_temperature;BMP_pressure;BME280_temperature;BME280_humidity;BME280_pressure;Samples;Min_cycle;Max_cycle;Signal;HPM_P1;HPM_P2
2023/08/23 00:01:37;;;;;;;4.85;2.95;;;14.50;20.60;;;;;;4987078;28;20357;-76
2023/08/23 00:04:03;;;;;;;5.00;3.15;;;14.50;20.20;;;;;;4972163;28;20046;-76
2023/08/23 00:06:28;;;;;;;7.60;2.95;;;14.40;19.60;;;;;;4987261;28;20382;-77
2023/08/23 00:08:54;;;;;;;4.35;2.75;;;14.30;20.50;;;;;;4985671;28;20436;-77
2023/08/23 00:11:20;;;;;;;6.88;2.70;;;14.30;22.10;;;;;;4983191;28;20129;-76
2023/08/23 00:13:46;;;;;;;5.13;2.80;;;14.20;26.80;;;;;;4985233;28;20042;-74
2023/08/23 00:16:12;;;;;;;6.22;3.05;;;14.30;31.20;;;;;;4966830;28;20084;-76
2023/08/23 00:18:37;;;;;;;7.68;3.38;;;14.20;32.00;;;;;;5003610;28;20034;-76
2023/08/23 00:21:03;;;;;;;5.10;2.90;;;14.20;32.80;;;;;;4986228;28;20046;-76
2023/08/23 00:23:29;;;;;;;4.03;2.42;;;14.10;36.10;;;;;;4986877;28;20546;-75
2023/08/23 00:25:54;;;;;;;5.20;2.55;;;14.10;42.80;;;;;;4987556;28;20527;-75
2023/08/23 00:28:20;;;;;;;3.72;2.58;;;14.10;45.00;;;;;;4984283;28;20098;-74
2023/08/23 00:30:53;;;;;;;4.05;2.47;;;14.10;43.60;;;;;;4967888;28;20054;-74
2023/08/23 00:33:19;;;;;;;5.18;2.60;;;14.10;43.50;;;;;;4985091;28;20046;-75
2023/08/23 00:35:44;;;;;;;5.32;3.38;;;14.10;45.00;;;;;;4985466;28;20045;-75
2023/08/23 00:38:10;;;;;;;4.00;2.40;;;14.00;46.20;;;;;;4986033;28;20038;-76
2023/08/23 00:40:36;;;;;;;4.97;3.00;;;13.90;47.40;;;;;;5020142;28;20081;-76
2023/08/23 00:43:02;;;;;;;6.70;3.03;;;14.00;48.60;;;;;;4984371;28;20475;-76
2023/08/23 00:45:30;;;;;;;5.63;3.00;;;14.00;51.50;;;;;;4985829;28;20088;-76
2023/08/23 00:47:56;;;;;;;6.22;2.92;;;13.90;53.00;;;;;;4984001;28;20038;-74
2023/08/23 00:50:22;;;;;;;7.47;3.28;;;13.90;58.90;;;;;;5003000;28;20093;-75
2023/08/23 00:52:48;;;;;;;5.35;3.35;;;13.90;68.80;;;;;;4985400;28;20039;-75
2023/08/23 00:55:14;;;;;;;6.05;3.78;;;13.90;66.30;;;;;;4985674;28;20042;-76
2023/08/23 00:57:40;;;;;;;6.57;4.07;;;13.90;66.40;;;;;;4986479;28;20046;-75
2023/08/23 01:00:06;;;;;;;4.82;3.20;;;13.90;72.40;;;;;;4987643;28;20128;-76
2023/08/23 01:02:33;;;;;;;5.15;3.20;;;13.90;76.90;;;;;;4988464;28;20038;-74
2023/08/23 01:04:59;;;;;;;6.35;2.70;;;14.00;78.00;;;;;;4988410;28;20038;-76
2023/08/23 01:07:50;;;;;;;4.97;3.13;;;14.00;81.00;;;;;;4975082;28;20105;-76
2023/08/23 01:10:38;;;;;;;4.47;2.90;;;14.10;81.80;;;;;;4962701;28;20042;-76
2023/08/23 01:13:23;;;;;;;4.82;2.67;;;14.00;80.50;;;;;;4988298;28;20505;-76
2023/08/23 01:15:51;;;;;;;3.90;2.80;;;14.10;76.10;;;;;;4981236;28;20122;-75
2023/08/23 01:18:18;;;;;;;4.30;2.90;;;14.00;71.20;;;;;;4988033;28;20045;-75
2023/08/23 01:20:49;;;;;;;9.38;4.60;;;14.00;70.40;;;;;;4986639;28;20050;-76
2023/08/23 01:23:16;;;;;;;8.70;3.42;;;14.00;82.80;;;;;;4971421;28;20045;-75
2023/08/23 01:25:50;;;;;;;7.05;3.60;;;13.90;84.80;;;;;;4992285;28;20470;-75
2023/08/23 01:28:16;;;;;;;5.70;3.90;;;13.90;84.30;;;;;;4990574;28;20040;-75
2023/08/23 01:30:42;;;;;;;4.88;3.40;;;13.90;83.00;;;;;;4984935;28;20090;-74
2023/08/23 01:33:41;;;;;;;7.07;3.67;;;13.90;86.90;;;;;;4987741;28;20504;-75
2023/08/23 01:36:17;;;;;;;5.68;3.05;;;14.00;90.00;;;;;;4971469;28;20042;-75
2023/08/23 01:38:45;;;;;;;6.72;3.42;;;14.00;88.00;;;;;;4988580;28;20058;-76
2023/08/23 01:41:11;;;;;;;5.68;3.50;;;14.00;83.40;;;;;;4978917;28;20047;-75
2023/08/23 01:43:36;;;;;;;8.82;3.45;;;14.00;79.70;;;;;;4993076;28;20049;-76
2023/08/23 01:46:02;;;;;;;5.82;4.05;;;13.90;75.30;;;;;;4987922;28;20043;-75
2023/08/23 01:48:28;;;;;;;6.30;3.50;;;13.90;74.40;;;;;;4989709;28;20771;-76
2023/08/23 01:50:53;;;;;;;7.22;4.28;;;13.90;78.40;;;;;;4979648;28;20492;-76
2023/08/23 01:53:19;;;;;;;5.50;3.80;;;13.80;80.10;;;;;;4995212;28;20046;-76
2023/08/23 01:55:44;;;;;;;8.70;4.15;;;13.80;85.70;;;;;;5004745;28;20042;-76
2023/08/23 01:58:10;;;;;;;4.93;3.65;;;13.70;90.30;;;;;;4989308;28;20053;-76
2023/08/23 02:00:36;;;;;;;6.70;4.25;;;13.80;92.30;;;;;;4986053;28;20073;-76
2023/08/23 02:03:01;;;;;;;7.78;4.00;;;13.90;93.80;;;;;;4990245;28;20046;-76
2023/08/23 02:05:30;;;;;;;9.00;4.22;;;13.90;94.60;;;;;;4989189;28;20031;-75
2023/08/23 02:07:55;;;;;;;6.35;3.83;;;14.00;93.10;;;;;;4988966;28;20049;-76
2023/08/23 02:10:21;;;;;;;6.47;4.07;;;14.00;91.50;;;;;;4988361;28;20117;-75
2023/08/23 02:12:47;;;;;;;6.15;3.42;;;14.00;90.00;;;;;;4987599;28;20042;-75
2023/08/23 02:15:13;;;;;;;5.57;3.83;;;13.90;85.60;;;;;;4973177;28;20084;-76
2023/08/23 02:17:38;;;;;;;6.38;4.50;;;13.90;83.30;;;;;;4989516;28;20505;-75
2023/08/23 02:20:05;;;;;;;5.78;4.43;;;13.80;86.20;;;;;;4988995;28;20035;-75
2023/08/23 02:22:31;;;;;;;7.22;3.92;;;13.80;89.70;;;;;;4989454;28;20057;-76
2023/08/23 02:24:56;;;;;;;6.85;4.35;;;13.80;90.40;;;;;;4984965;28;20031;-76
2023/08/23 02:27:22;;;;;;;6.80;3.85;;;13.70;90.40;;;;;;4971942;28;20039;-75
2023/08/23 02:29:48;;;;;;;7.13;3.70;;;13.70;91.30;;;;;;4982259;28;20065;-76
2023/08/23 02:32:13;;;;;;;5.30;3.55;;;13.60;90.50;;;;;;4989829;28;20132;-76
2023/08/23 02:34:39;;;;;;;5.13;3.75;;;13.60;91.90;;;;;;4987625;28;20042;-75
2023/08/23 02:37:05;;;;;;;5.90;4.00;;;13.60;92.80;;;;;;4989350;28;20042;-76
2023/08/23 02:39:30;;;;;;;6.28;4.07;;;13.60;92.50;;;;;;4989085;28;20038;-76
2023/08/23 02:41:56;;;;;;;4.90;3.30;;;13.50;92.20;;;;;;4989230;28;20600;-76
2023/08/23 02:44:22;;;;;;;5.50;3.70;;;13.50;94.50;;;;;;4988502;28;20500;-75
2023/08/23 02:46:47;;;;;;;8.20;4.85;;;13.50;95.80;;;;;;4986062;28;20037;-75
2023/08/23 02:49:13;;;;;;;6.07;3.78;;;13.50;97.00;;;;;;4985687;28;20042;-75
2023/08/23 02:51:38;;;;;;;5.60;3.83;;;13.50;96.20;;;;;;4987929;28;20073;-76
2023/08/23 02:54:04;;;;;;;8.05;3.90;;;13.50;95.90;;;;;;4986697;28;20164;-76
2023/08/23 02:56:30;;;;;;;4.88;4.00;;;13.40;96.00;;;;;;4970946;28;20134;-74
2023/08/23 02:58:55;;;;;;;4.88;3.60;;;13.40;96.80;;;;;;4983691;28;20718;-75
2023/08/23 03:01:21;;;;;;;5.93;3.58;;;13.40;99.20;;;;;;4998115;28;20034;-76
2023/08/23 03:03:47;;;;;;;4.53;3.17;;;13.40;99.90;;;;;;4987612;28;20034;-75
2023/08/23 03:06:12;;;;;;;5.72;4.35;;;13.40;99.90;;;;;;4987392;28;20082;-75
2023/08/23 03:08:38;;;;;;;5.15;3.58;;;13.50;99.90;;;;;;4988307;28;20046;-76
2023/08/23 03:11:05;;;;;;;5.05;3.40;;;13.50;99.90;;;;;;4986751;28;20042;-76
2023/08/23 03:13:32;;;;;;;8.20;3.60;;;13.50;99.80;;;;;;4982959;28;20043;-76
2023/08/23 03:15:58;;;;;;;4.55;3.42;;;13.50;99.30;;;;;;4969868;28;20043;-76
2023/08/23 03:18:24;;;;;;;4.20;3.33;;;13.50;98.10;;;;;;4974904;28;20124;-76
2023/08/23 03:20:50;;;;;;;5.15;3.30;;;13.50;97.30;;;;;;4986684;28;20493;-76
2023/08/23 03:23:17;;;;;;;5.60;3.63;;;13.50;97.50;;;;;;4984635;28;20123;-76
2023/08/23 03:25:45;;;;;;;5.70;3.55;;;13.50;97.10;;;;;;4975829;28;20117;-75
2023/08/23 03:28:11;;;;;;;5.55;3.97;;;13.50;98.50;;;;;;4989389;28;20097;-76
2023/08/23 03:30:37;;;;;;;5.68;4.07;;;13.60;99.90;;;;;;4985324;28;20532;-75
2023/08/23 03:33:03;;;;;;;5.18;3.95;;;13.70;99.90;;;;;;4987756;28;20073;-75
2023/08/23 03:35:28;;;;;;;6.40;4.28;;;13.70;99.90;;;;;;4972125;28;20052;-75
2023/08/23 03:37:54;;;;;;;6.07;4.03;;;13.70;99.90;;;;;;4983422;28;20043;-75
2023/08/23 03:40:19;;;;;;;5.55;3.95;;;13.80;99.90;;;;;;4988077;28;20073;-75
2023/08/23 03:42:45;;;;;;;6.57;4.18;;;13.80;99.50;;;;;;4986188;28;20035;-75
2023/08/23 03:45:12;;;;;;;6.93;5.25;;;13.90;98.70;;;;;;4988209;28;20035;-75
2023/08/23 03:47:37;;;;;;;7.30;4.75;;;13.90;98.30;;;;;;4969590;28;20042;-75
2023/08/23 03:50:03;;;;;;;7.10;4.78;;;14.00;98.90;;;;;;4972814;28;20046;-75
2023/08/23 03:52:29;;;;;;;11.07;5.15;;;13.90;99.40;;;;;;4986086;28;20085;-76
2023/08/23 03:54:55;;;;;;;9.65;5.00;;;13.90;99.90;;;;;;4988003;28;20046;-75
2023/08/23 03:57:20;;;;;;;8.00;5.30;;;14.00;99.30;;;;;;4969842;28;20701;-75
2023/08/23 03:59:46;;;;;;;10.30;5.68;;;14.00;99.60;;;;;;4975828;28;20042;-75
2023/08/23 04:02:12;;;;;;;10.35;5.45;;;14.00;99.90;;;;;;4987341;28;20050;-75
2023/08/23 04:04:38;;;;;;;9.15;5.38;;;14.00;99.90;;;;;;4969414;28;20034;-75
2023/08/23 04:07:06;;;;;;;8.13;4.95;;;14.00;99.90;;;;;;4986035;28;20527;-75
2023/08/23 04:09:32;;;;;;;9.32;5.75;;;14.00;99.90;;;;;;4987023;28;20038;-76
2023/08/23 04:11:58;;;;;;;7.40;5.00;;;14.10;99.90;;;;;;4987946;28;20129;-76
2023/08/23 04:14:23;;;;;;;9.77;5.47;;;14.10;99.90;;;;;;4974575;28;20042;-76
2023/08/23 04:16:49;;;;;;;6.68;4.93;;;14.10;99.90;;;;;;4987724;28;20046;-76
2023/08/23 04:19:15;;;;;;;7.32;5.20;;;14.20;99.90;;;;;;4972322;28;20507;-76
2023/08/23 04:21:40;;;;;;;7.63;5.30;;;14.10;99.90;;;;;;4985115;28;20046;-76
2023/08/23 04:24:06;;;;;;;7.00;4.80;;;14.20;99.90;;;;;;4998964;28;20082;-76
2023/08/23 04:26:32;;;;;;;8.60;5.28;;;14.20;99.90;;;;;;4987190;28;20612;-76
2023/08/23 04:28:58;;;;;;;8.38;5.47;;;14.10;99.90;;;;;;4971367;28;20123;-76
2023/08/23 04:31:23;;;;;;;7.05;5.22;;;14.10;99.90;;;;;;4951520;28;20052;-76
2023/08/23 04:33:49;;;;;;;5.75;4.80;;;14.10;99.90;;;;;;4980877;28;20459;-76
2023/08/23 04:36:15;;;;;;;5.50;4.70;;;14.20;99.90;;;;;;4985173;28;20397;-75
2023/08/23 04:38:40;;;;;;;7.07;5.03;;;14.30;99.90;;;;;;4986676;28;20046;-75
2023/08/23 04:41:06;;;;;;;5.47;4.43;;;14.40;99.90;;;;;;4970944;28;20155;-75
2023/08/23 04:43:32;;;;;;;6.43;5.03;;;14.40;99.90;;;;;;4985107;28;20069;-75
2023/08/23 04:45:58;;;;;;;6.40;5.22;;;14.30;99.90;;;;;;5003609;28;20045;-76
2023/08/23 04:48:26;;;;;;;6.63;4.97;;;14.30;99.90;;;;;;4991063;28;20039;-76
2023/08/23 04:50:57;;;;;;;9.25;5.10;;;14.40;99.90;;;;;;4991966;28;20046;-76
2023/08/23 04:53:26;;;;;;;8.75;5.28;;;14.40;99.90;;;;;;4985270;28;20073;-76
2023/08/23 04:55:59;;;;;;;6.75;4.93;;;14.40;99.90;;;;;;4987222;28;20125;-76
2023/08/23 04:58:29;;;;;;;7.82;4.88;;;14.40;99.90;;;;;;4980779;28;20469;-76
2023/08/23 05:00:58;;;;;;;9.60;5.20;;;14.50;99.90;;;;;;4967951;28;20445;-76
2023/08/23 05:03:25;;;;;;;8.57;5.72;;;14.40;99.90;;;;;;4989390;28;20117;-76
2023/08/23 05:05:52;;;;;;;8.27;5.60;;;14.40;99.90;;;;;;4987092;28;20034;-75
2023/08/23 05:08:18;;;;;;;6.72;5.03;;;14.40;99.90;;;;;;4986504;28;20042;-76
2023/08/23 05:10:43;;;;;;;9.05;5.72;;;14.40;99.90;;;;;;4986262;28;20116;-75
2023/08/23 05:13:09;;;;;;;7.28;5.72;;;14.40;99.90;;;;;;4985171;28;20070;-75
2023/08/23 05:15:34;;;;;;;11.25;6.50;;;14.40;99.90;;;;;;4986918;28;20053;-76
2023/08/23 05:18:00;;;;;;;9.52;6.85;;;14.40;99.90;;;;;;4984910;28;20155;-76
2023/08/23 05:20:26;;;;;;;10.68;6.60;;;14.50;99.90;;;;;;4986008;28;20043;-76
2023/08/23 05:22:51;;;;;;;9.73;6.45;;;14.60;99.90;;;;;;4986310;28;20426;-76
2023/08/23 05:25:17;;;;;;;9.95;6.88;;;14.60;99.90;;;;;;4985995;28;20112;-75
2023/08/23 05:27:43;;;;;;;10.63;7.07;;;14.70;99.90;;;;;;4973975;28;20047;-76
2023/08/23 05:30:09;;;;;;;14.13;7.30;;;14.80;99.90;;;;;;4984568;28;20055;-76
2023/08/23 05:32:35;;;;;;;13.10;7.28;;;14.90;99.90;;;;;;4980597;28;20543;-76
2023/08/23 05:35:00;;;;;;;12.20;7.60;;;15.00;99.90;;;;;;5002063;28;20030;-75
2023/08/23 05:37:26;;;;;;;10.00;7.03;;;15.00;99.90;;;;;;5001309;28;20042;-76
2023/08/23 05:39:52;;;;;;;12.50;7.35;;;15.00;99.90;;;;;;4988457;28;20033;-76
2023/08/23 05:42:18;;;;;;;11.60;7.35;;;15.00;99.90;;;;;;4973941;28;20112;-75
2023/08/23 05:44:44;;;;;;;10.45;7.00;;;14.90;99.90;;;;;;4985789;28;20042;-76
2023/08/23 05:47:10;;;;;;;12.02;7.55;;;15.00;99.90;;;;;;4987654;28;20389;-76
2023/08/23 05:49:35;;;;;;;14.57;6.97;;;15.00;99.90;;;;;;4974160;28;20034;-75
2023/08/23 05:52:01;;;;;;;10.07;7.15;;;15.00;99.90;;;;;;4973247;28;20049;-75
2023/08/23 05:54:27;;;;;;;10.30;6.85;;;15.00;99.90;;;;;;5005454;28;20050;-75
2023/08/23 05:56:52;;;;;;;12.23;7.28;;;15.00;99.90;;;;;;4989418;28;20038;-75
2023/08/23 05:59:18;;;;;;;12.23;8.38;;;15.00;99.90;;;;;;5001082;28;20046;-76
2023/08/23 06:01:44;;;;;;;14.35;9.18;;;15.10;99.90;;;;;;4973010;28;20049;-75
2023/08/23 06:04:09;;;;;;;12.82;8.13;;;15.10;99.90;;;;;;4972957;28;20041;-75
2023/08/23 06:06:35;;;;;;;14.52;8.30;;;15.20;99.90;;;;;;4984147;28;20480;-75
2023/08/23 06:09:00;;;;;;;14.07;8.55;;;15.20;99.90;;;;;;5002767;28;20034;-76
2023/08/23 06:11:26;;;;;;;12.77;7.80;;;15.30;99.90;;;;;;4984196;28;20073;-76
2023/08/23 06:13:52;;;;;;;13.05;8.25;;;15.30;99.90;;;;;;4972018;28;20049;-76
2023/08/23 06:16:17;;;;;;;12.70;8.23;;;15.40;99.90;;;;;;4983682;28;20504;-76
2023/08/23 06:18:43;;;;;;;12.45;8.93;;;15.60;99.90;;;;;;4988701;28;20050;-76
2023/08/23 06:21:09;;;;;;;16.58;8.98;;;15.70;99.90;;;;;;4971427;28;20039;-76
2023/08/23 06:23:36;;;;;;;13.93;8.65;;;15.90;99.90;;;;;;4997818;28;20039;-76
2023/08/23 06:26:03;;;;;;;13.77;8.88;;;16.10;99.90;;;;;;4983278;28;20111;-75
2023/08/23 06:28:29;;;;;;;13.23;7.90;;;16.20;99.90;;;;;;4987760;28;20568;-75
2023/08/23 06:30:56;;;;;;;15.23;8.45;;;16.30;99.90;;;;;;4985624;28;20138;-76
2023/08/23 06:33:22;;;;;;;15.27;8.85;;;16.40;99.90;;;;;;4966201;28;20390;-76
2023/08/23 06:35:47;;;;;;;13.70;8.70;;;16.50;99.90;;;;;;4985028;28;20074;-77
2023/08/23 06:38:15;;;;;;;14.93;9.15;;;16.50;99.90;;;;;;4983047;28;20527;-78
2023/08/23 06:40:42;;;;;;;16.60;9.25;;;16.50;99.90;;;;;;4995419;28;20413;-77
2023/08/23 06:43:08;;;;;;;13.90;8.48;;;16.50;99.90;;;;;;4981189;28;20092;-77
2023/08/23 06:45:34;;;;;;;13.70;8.68;;;16.60;99.90;;;;;;4982305;28;20081;-77
2023/08/23 06:47:59;;;;;;;13.48;8.52;;;16.60;99.90;;;;;;5000319;28;20070;-78
2023/08/23 06:50:25;;;;;;;14.20;8.85;;;16.60;99.90;;;;;;4988055;28;20077;-77
2023/08/23 06:52:51;;;;;;;11.88;7.65;;;16.70;99.90;;;;;;4966925;28;20089;-78
2023/08/23 06:55:16;;;;;;;15.98;7.88;;;16.80;99.90;;;;;;4970801;28;20459;-77
2023/08/23 06:57:42;;;;;;;10.82;7.10;;;16.90;99.90;;;;;;4986271;28;20481;-76
2023/08/23 07:00:08;;;;;;;12.93;7.47;;;17.00;99.90;;;;;;4986734;28;20057;-76
2023/08/23 07:02:34;;;;;;;11.43;7.00;;;17.20;99.90;;;;;;4983963;28;20081;-76
2023/08/23 07:05:00;;;;;;;9.77;6.80;;;17.40;99.90;;;;;;4963004;28;20039;-76
2023/08/23 07:07:26;;;;;;;12.13;7.60;;;17.50;99.90;;;;;;4972946;28;20457;-76
2023/08/23 07:09:52;;;;;;;13.00;6.65;;;17.50;99.90;;;;;;4983833;28;20129;-77
2023/08/23 07:12:17;;;;;;;11.07;7.38;;;17.60;99.90;;;;;;4983948;28;20065;-76
2023/08/23 07:14:45;;;;;;;10.23;7.15;;;17.60;99.90;;;;;;4983977;28;20038;-77
2023/08/23 07:17:11;;;;;;;11.13;7.93;;;17.50;99.90;;;;;;4977004;28;20042;-76
2023/08/23 07:19:36;;;;;;;10.18;7.18;;;17.50;99.90;;;;;;4968233;28;20055;-76
2023/08/23 07:22:03;;;;;;;12.50;7.82;;;17.60;99.90;;;;;;4980939;28;20064;-78
2023/08/23 07:24:28;;;;;;;10.73;6.72;;;17.70;99.90;;;;;;5001728;28;20050;-76
2023/08/23 07:26:55;;;;;;;10.10;6.93;;;17.90;99.90;;;;;;4981274;28;20042;-79
2023/08/23 07:29:21;;;;;;;11.02;6.82;;;18.10;99.90;;;;;;4984649;28;20164;-78
2023/08/23 07:31:46;;;;;;;11.95;7.00;;;18.30;99.60;;;;;;5001110;28;20485;-78
2023/08/23 07:34:12;;;;;;;9.43;6.38;;;18.40;94.90;;;;;;4982581;28;20120;-78
2023/08/23 07:36:38;;;;;;;8.30;5.72;;;18.60;86.90;;;;;;4977176;28;20096;-78
2023/08/23 07:39:03;;;;;;;7.50;5.50;;;18.70;61.90;;;;;;4974255;28;20072;-77
2023/08/23 07:41:30;;;;;;;6.85;4.50;;;18.80;41.10;;;;;;4981306;28;20117;-77
2023/08/23 07:43:55;;;;;;;7.63;4.13;;;19.00;27.60;;;;;;4982136;28;20070;-77
2023/08/23 07:46:21;;;;;;;7.72;4.18;;;19.20;2.20;;;;;;4999679;28;20497;-78
2023/08/23 07:48:47;;;;;;;4.82;3.40;;;19.30;1.00;;;;;;4983743;28;20038;-77
2023/08/23 07:51:12;;;;;;;4.60;3.13;;;19.50;1.00;;;;;;4999634;28;20077;-77
2023/08/23 07:53:38;;;;;;;6.50;3.47;;;19.50;1.00;;;;;;4985011;28;20042;-78
2023/08/23 07:56:04;;;;;;;6.45;4.03;;;19.60;1.00;;;;;;5001071;28;20092;-77
2023/08/23 07:58:29;;;;;;;5.85;3.90;;;19.70;1.00;;;;;;4990620;28;20046;-78
2023/08/23 08:00:55;;;;;;;5.47;3.13;;;19.60;1.00;;;;;;4983669;28;20042;-78
2023/08/23 08:03:20;;;;;;;3.40;2.95;;;19.60;1.00;;;;;;4983881;28;20129;-78
2023/08/23 08:05:46;;;;;;;3.45;2.28;;;19.40;1.00;;;;;;4984251;28;20088;-77
2023/08/23 08:08:15;;;;;;;4.57;2.72;;;19.40;1.00;;;;;;4978645;28;20046;-77
2023/08/23 08:10:40;;;;;;;4.82;3.13;;;19.40;1.00;;;;;;4977682;28;20035;-79
2023/08/23 08:13:06;;;;;;;3.75;2.67;;;19.30;1.00;;;;;;4982646;28;20068;-77
2023/08/23 08:15:32;;;;;;;4.45;2.97;;;19.40;1.00;;;;;;4967132;28;20133;-77
2023/08/23 08:17:58;;;;;;;5.88;3.08;;;19.50;1.00;;;;;;4960835;28;20772;-78
2023/08/23 08:20:24;;;;;;;5.55;3.35;;;19.60;99.90;;;;;;4967535;28;20048;-78
2023/08/23 08:22:51;;;;;;;6.53;2.63;;;19.70;99.90;;;;;;5000787;28;20620;-77
2023/08/23 08:25:16;;;;;;;5.35;2.97;;;19.80;99.90;;;;;;4982585;28;20036;-78
2023/08/23 08:27:42;;;;;;;4.30;2.83;;;20.00;99.90;;;;;;4984381;28;20092;-77
2023/08/23 08:30:08;;;;;;;4.03;2.70;;;20.10;99.90;;;;;;4977854;28;20226;-78
2023/08/23 08:32:34;;;;;;;5.97;3.00;;;20.20;99.90;;;;;;4966595;28;20053;-77
2023/08/23 08:35:00;;;;;;;4.75;3.17;;;20.30;99.90;;;;;;4972539;28;20437;-78
2023/08/23 08:37:26;;;;;;;5.78;2.80;;;20.40;99.90;;;;;;4993742;28;20046;-77
2023/08/23 08:39:51;;;;;;;5.15;2.97;;;20.50;99.90;;;;;;4983991;28;20412;-78
2023/08/23 08:42:17;;;;;;;4.15;3.17;;;20.70;25.40;;;;;;4966286;28;20046;-78
2023/08/23 08:44:46;;;;;;;3.88;2.53;;;20.90;1.00;;;;;;4973901;28;20081;-80
2023/08/23 08:47:12;;;;;;;3.88;2.90;;;21.00;1.00;;;;;;4982470;28;20038;-76
2023/08/23 08:49:38;;;;;;;4.35;2.83;;;21.20;1.00;;;;;;4980415;28;20050;-78
2023/08/23 08:52:05;;;;;;;8.85;3.20;;;21.40;99.90;;;;;;4966867;28;20050;-79
2023/08/23 08:54:33;;;;;;;4.60;2.88;;;21.50;99.90;;;;;;4981922;28;20042;-77
2023/08/23 08:57:00;;;;;;;6.43;3.45;;;21.80;99.90;;;;;;4975223;28;20042;-78
2023/08/23 08:59:26;;;;;;;3.97;2.97;;;21.90;99.90;;;;;;4980252;28;20049;-77
2023/08/23 09:01:55;;;;;;;3.60;2.70;;;22.10;99.90;;;;;;4981931;28;20142;-78
2023/08/23 09:04:20;;;;;;;4.90;2.97;;;22.20;99.90;;;;;;4999597;28;20049;-79
2023/08/23 09:06:47;;;;;;;5.72;2.75;;;22.30;99.90;;;;;;4967922;28;20459;-78
2023/08/23 09:09:13;;;;;;;10.40;2.53;;;22.40;99.90;;;;;;4977765;28;20097;-80
2023/08/23 09:11:39;;;;;;;4.18;2.03;;;22.60;99.90;;;;;;4976819;28;20466;-79
2023/08/23 09:14:25;;;;;;;4.43;1.73;;;22.80;99.90;;;;;;4981769;28;20046;-78
2023/08/23 09:16:51;;;;;;;2.17;1.70;;;23.70;1.00;;;;;;5000736;28;20129;-78
2023/08/23 09:19:16;;;;;;;3.08;1.75;;;25.00;1.00;;;;;;4968736;28;20113;-78
2023/08/23 09:21:49;;;;;;;1.75;1.40;;;26.00;1.00;;;;;;4969849;28;20042;-78
2023/08/23 09:24:16;;;;;;;3.38;1.50;;;27.10;1.00;;;;;;4984845;28;20720;-79
2023/08/23 09:26:46;;;;;;;4.13;1.48;;;27.90;1.00;;;;;;4975807;28;20058;-79
2023/08/23 09:29:12;;;;;;;2.17;1.52;;;28.20;1.00;;;;;;4985379;28;20058;-78
2023/08/23 09:31:39;;;;;;;2.50;1.60;;;28.60;1.00;;;;;;5002608;28;20060;-79
2023/08/23 09:34:14;;;;;;;4.38;1.67;;;28.60;1.00;;;;;;4980224;28;20042;-78
2023/08/23 09:36:40;;;;;;;1.63;1.20;;;28.90;1.00;;;;;;4985542;28;20030;-79
2023/08/23 09:39:10;;;;;;;2.17;1.25;;;29.40;1.00;;;;;;4970904;28;21343;-79
2023/08/23 09:41:41;;;;;;;3.67;1.58;;;30.00;1.00;;;;;;4997055;28;20046;-79
2023/08/23 09:44:07;;;;;;;2.55;1.25;;;30.30;1.00;;;;;;4984099;28;20030;-79
2023/08/23 09:46:35;;;;;;;2.40;1.15;;;30.30;1.00;;;;;;4985026;28;20046;-80
2023/08/23 09:49:05;;;;;;;2.40;1.25;;;30.20;1.00;;;;;;4980497;28;20503;-80
2023/08/23 09:51:36;;;;;;;2.75;1.40;;;29.90;1.00;;;;;;4985366;28;20460;-79
2023/08/23 09:54:10;;;;;;;5.82;1.67;;;29.80;1.00;;;;;;4985040;28;20603;-79
2023/08/23 09:56:36;;;;;;;4.93;1.60;;;29.90;1.00;;;;;;4986316;28;20149;-79
2023/08/23 09:59:02;;;;;;;1.75;1.10;;;30.20;1.00;;;;;;4972697;28;20496;-80
2023/08/23 10:01:28;;;;;;;3.45;1.40;;;30.70;1.00;;;;;;4997617;28;20101;-80
2023/08/23 10:03:54;;;;;;;3.50;1.63;;;30.90;1.00;;;;;;4975451;28;20102;-80
2023/08/23 10:06:21;;;;;;;3.70;1.52;;;30.60;1.00;;;;;;4970456;28;20076;-80
2023/08/23 10:08:48;;;;;;;2.60;1.50;;;31.10;1.00;;;;;;4983680;28;20069;-80
2023/08/23 10:11:18;;;;;;;4.80;1.90;;;31.70;1.00;;;;;;4988132;28;20057;-80
2023/08/23 10:13:45;;;;;;;2.75;1.88;;;31.20;1.00;;;;;;4987965;28;20042;-80
2023/08/23 10:16:13;;;;;;;3.75;1.80;;;30.20;1.00;;;;;;4967984;28;20551;-80
2023/08/23 10:18:40;;;;;;;3.78;2.00;;;29.40;1.00;;;;;;4994778;28;20077;-80
2023/08/23 10:21:05;;;;;;;3.50;1.80;;;29.20;1.00;;;;;;4985163;28;20050;-80
2023/08/23 10:23:34;;;;;;;3.53;1.35;;;29.10;1.00;;;;;;4987669;28;20039;-80
2023/08/23 10:26:02;;;;;;;2.78;2.00;;;29.10;1.00;;;;;;4968106;28;20042;-80
2023/08/23 10:28:27;;;;;;;2.88;1.70;;;28.80;1.00;;;;;;4982009;28;20062;-80
2023/08/23 10:30:53;;;;;;;4.30;2.17;;;29.00;1.00;;;;;;4982012;28;20225;-80
2023/08/23 10:33:19;;;;;;;3.00;1.60;;;28.80;1.00;;;;;;4979264;28;20104;-80
2023/08/23 10:35:47;;;;;;;5.45;2.03;;;28.20;1.00;;;;;;4986518;28;20054;-81
2023/08/23 10:38:13;;;;;;;3.17;2.40;;;28.40;1.00;;;;;;4963596;28;20049;-79
2023/08/23 10:40:42;;;;;;;4.30;2.60;;;29.20;1.00;;;;;;4992202;28;20049;-80
2023/08/23 10:43:19;;;;;;;3.60;1.98;;;30.20;1.00;;;;;;4983022;28;20148;-80
2023/08/23 10:46:06;;;;;;;3.08;1.80;;;30.90;1.00;;;;;;4965953;28;20108;-80
2023/08/23 10:48:32;;;;;;;3.25;1.98;;;31.50;1.00;;;;;;4982637;28;20092;-82
2023/08/23 10:50:58;;;;;;;4.45;2.13;;;31.90;1.00;;;;;;4968868;28;20042;-81
2023/08/23 10:53:24;;;;;;;3.00;1.52;;;31.40;1.00;;;;;;4988759;28;20042;-81
2023/08/23 10:55:50;;;;;;;3.10;1.98;;;31.30;1.00;;;;;;4988271;28;20042;-80
2023/08/23 10:58:16;;;;;;;2.80;2.30;;;31.60;1.00;;;;;;4977688;28;21702;-80
2023/08/23 11:00:44;;;;;;;5.30;2.03;;;31.80;1.00;;;;;;4983907;28;20038;-80
2023/08/23 11:03:13;;;;;;;3.35;1.92;;;32.10;1.00;;;;;;4984275;28;20642;-81
2023/08/23 11:05:39;;;;;;;3.30;2.35;;;33.00;1.00;;;;;;4982392;28;20042;-80
2023/08/23 11:08:05;;;;;;;3.78;1.88;;;32.40;1.00;;;;;;4984417;28;20493;-80
2023/08/23 11:10:31;;;;;;;2.35;1.85;;;31.20;1.00;;;;;;4971125;28;20058;-79
2023/08/23 11:12:57;;;;;;;3.03;2.13;;;31.50;1.00;;;;;;4985003;28;20189;-80
2023/08/23 11:15:24;;;;;;;7.05;2.60;;;32.50;1.00;;;;;;4998187;28;20208;-79
2023/08/23 11:17:54;;;;;;;3.72;2.15;;;33.00;1.00;;;;;;4990402;28;20042;-81
2023/08/23 11:20:20;;;;;;;6.32;1.90;;;32.40;1.00;;;;;;4985765;28;20157;-80
2023/08/23 11:22:47;;;;;;;4.03;2.22;;;31.60;1.00;;;;;;4997934;28;20070;-80
2023/08/23 11:25:12;;;;;;;5.28;2.00;;;31.90;1.00;;;;;;4959081;28;20038;-79
2023/08/23 11:27:38;;;;;;;3.10;2.10;;;32.10;1.00;;;;;;4981660;28;20049;-79
2023/08/23 11:30:05;;;;;;;4.40;2.65;;;31.20;1.00;;;;;;4978110;28;20046;-79
2023/08/23 11:32:31;;;;;;;3.72;2.00;;;30.10;1.00;;;;;;4996892;28;20687;-79
2023/08/23 11:34:57;;;;;;;5.07;2.20;;;29.10;1.00;;;;;;4967060;28;20120;-79
2023/08/23 11:37:23;;;;;;;5.45;2.63;;;29.00;1.00;;;;;;4993388;28;20043;-78
2023/08/23 11:39:59;;;;;;;3.92;2.67;;;29.50;1.00;;;;;;4978176;28;20042;-79
2023/08/23 11:42:26;;;;;;;3.00;2.40;;;30.70;1.00;;;;;;4986201;28;20523;-78
2023/08/23 11:44:55;;;;;;;3.30;2.28;;;31.60;1.00;;;;;;4982401;28;20039;-79
2023/08/23 11:47:27;;;;;;;5.90;2.05;;;32.70;1.00;;;;;;4983337;28;20119;-78
2023/08/23 11:49:53;;;;;;;3.72;1.92;;;33.40;1.00;;;;;;4982036;28;20104;-78
2023/08/23 11:52:19;;;;;;;3.83;2.13;;;34.30;1.00;;;;;;4970826;28;20560;-79
2023/08/23 11:54:45;;;;;;;3.05;1.67;;;34.20;1.00;;;;;;4979195;28;20420;-79
2023/08/23 11:57:15;;;;;;;3.97;2.20;;;33.90;1.00;;;;;;4983486;28;20038;-79
2023/08/23 11:59:41;;;;;;;2.13;1.75;;;33.90;1.00;;;;;;4977917;28;20399;-79
2023/08/23 12:02:07;;;;;;;5.78;2.10;;;33.80;1.00;;;;;;4985694;28;20050;-80
2023/08/23 12:04:33;;;;;;;2.55;2.00;;;34.00;1.00;;;;;;4982965;28;20453;-79
2023/08/23 12:06:59;;;;;;;4.72;2.17;;;32.50;1.00;;;;;;4980179;28;20070;-79
2023/08/23 12:09:27;;;;;;;3.00;2.17;;;30.70;1.00;;;;;;4978615;28;20057;-79
2023/08/23 12:11:53;;;;;;;6.47;2.53;;;29.70;1.00;;;;;;4998560;28;20072;-79
2023/08/23 12:14:19;;;;;;;5.68;2.63;;;29.10;1.00;;;;;;4970150;28;20137;-79
2023/08/23 12:16:45;;;;;;;5.70;2.50;;;30.10;1.00;;;;;;4999961;28;20045;-79
2023/08/23 12:19:10;;;;;;;5.85;2.38;;;31.10;1.00;;;;;;4981678;28;20038;-80
2023/08/23 12:21:36;;;;;;;6.00;2.78;;;31.70;1.00;;;;;;4983323;28;20046;-80
2023/08/23 12:24:02;;;;;;;4.30;1.80;;;31.40;1.00;;;;;;4981830;28;20041;-80
2023/08/23 12:26:28;;;;;;;2.75;1.40;;;29.90;1.00;;;;;;4983814;28;20038;-79
2023/08/23 12:28:54;;;;;;;2.65;1.45;;;29.30;1.00;;;;;;4983761;28;20034;-79
2023/08/23 12:31:20;;;;;;;2.38;1.50;;;30.00;1.00;;;;;;4968513;28;20054;-80
2023/08/23 12:33:46;;;;;;;1.98;1.10;;;31.10;1.00;;;;;;4981822;28;20038;-79
2023/08/23 12:36:15;;;;;;;3.10;0.98;;;32.20;1.00;;;;;;4999433;28;20100;-79
2023/08/23 12:38:40;;;;;;;3.13;1.00;;;31.60;1.00;;;;;;4981548;28;20081;-80
2023/08/23 12:41:06;;;;;;;1.80;1.10;;;31.90;1.00;;;;;;4980951;28;20035;-81
2023/08/23 12:43:33;;;;;;;3.35;0.77;;;32.60;1.00;;;;;;4973225;28;20047;-80
2023/08/23 12:45:59;;;;;;;1.98;0.85;;;33.20;1.00;;;;;;4999897;28;20334;-79